Terminal Aerodrome Forecast
Issued by NWS

Current Version | Previous Version | Text Only | Print | Product List | Glossary Off
Versions: 1 2 3 4 5 6 7 8 9 10 11 12 13 14 15 16 17 18

000
FTUS41 KILN 151740
TAFLUK
TAF
KLUK 151740Z 1518/1618 21012KT 5SM -SHRA SCT035 OVC060
     FM152000 22011KT P6SM VCSH OVC028
     FM152300 24009KT P6SM OVC015
     FM160800 28010KT P6SM SCT018
     FM161200 29008KT P6SM BKN018=

USA.gov is the U.S. government's official web portal to all federal, state and local government web resources and services.